createdAt,value
2022-10-28T00:02:14.196Z,52.33
2022-10-28T00:04:47.317Z,49.25
2022-10-28T00:07:19.828Z,46.05
2022-10-28T00:09:52.830Z,43.63
2022-10-28T00:12:25.380Z,44.10
2022-10-28T00:14:58.121Z,44.20
2022-10-28T00:17:30.709Z,42.28
2022-10-28T00:20:03.898Z,45.35
2022-10-28T00:22:36.404Z,43.08
2022-10-28T00:25:09.375Z,46.58
2022-10-28T00:27:41.880Z,44.70
2022-10-28T00:30:14.712Z,53.75
2022-10-28T00:32:47.304Z,54.22
2022-10-28T00:35:20.060Z,43.17
2022-10-28T00:37:55.336Z,52.50
2022-10-28T00:40:28.149Z,45.97
2022-10-28T00:43:00.720Z,45.25
2022-10-28T00:45:33.507Z,49.08
2022-10-28T00:48:06.887Z,46.60
2022-10-28T00:50:54.063Z,44.97
2022-10-28T00:53:31.604Z,49.17
2022-10-28T00:56:04.805Z,40.70
2022-10-28T00:58:37.813Z,40.10
2022-10-28T01:01:10.768Z,44.70
2022-10-28T01:03:43.475Z,49.50
2022-10-28T01:06:16.978Z,43.35
2022-10-28T01:08:49.508Z,41.85
2022-10-28T01:11:43.691Z,48.25
2022-10-28T01:14:23.777Z,47.55
2022-10-28T01:20:06.184Z,41.25
2022-10-28T01:23:08.320Z,40.70
2022-10-28T01:26:10.805Z,47.50
2022-10-28T01:28:59.449Z,46.38
2022-10-28T01:31:54.236Z,42.63
2022-10-28T01:35:17.226Z,47.10
2022-10-28T01:37:55.756Z,44.53
2022-10-28T01:40:42.992Z,42.88
2022-10-28T01:43:23.776Z,46.67
2022-10-28T01:46:00.578Z,45.45
2022-10-28T01:48:56.190Z,45.58
2022-10-28T01:51:34.075Z,42.83
2022-10-28T01:54:08.840Z,44.35
2022-10-28T01:56:42.943Z,48.85
2022-10-28T01:59:22.459Z,44.90
2022-10-28T02:01:56.270Z,45.67
2022-10-28T02:04:28.874Z,43.08
2022-10-28T02:07:01.966Z,43.10
2022-10-28T02:09:43.252Z,49.72
2022-10-28T02:12:23.805Z,59.80
2022-10-28T02:17:56.931Z,43.58
2022-10-28T02:20:55.303Z,44.30
2022-10-28T02:23:36.897Z,42.67
2022-10-28T02:26:24.641Z,46.25
2022-10-28T02:29:19.670Z,38.85
2022-10-28T02:32:08.889Z,38.08
2022-10-28T02:34:47.097Z,45.63
2022-10-28T02:37:28.617Z,44.80
2022-10-28T02:40:05.755Z,43.97
2022-10-28T02:42:44.413Z,43.85
2022-10-28T02:45:22.817Z,41.75
2022-10-28T02:48:00.289Z,43.15
2022-10-28T02:50:36.809Z,49.42
2022-10-28T02:53:16.348Z,48.00
2022-10-28T02:55:53.489Z,41.53
2022-10-28T02:58:26.549Z,44.50
2022-10-28T03:00:59.343Z,40.30
2022-10-28T03:03:32.038Z,44.22
2022-10-28T03:06:04.917Z,38.08
2022-10-28T03:08:37.421Z,43.65
2022-10-28T03:11:10.125Z,39.58
2022-10-28T03:13:42.653Z,39.90
2022-10-28T03:16:15.386Z,41.90
2022-10-28T03:18:47.890Z,50.20
2022-10-28T03:21:21.102Z,42.75
2022-10-28T03:23:53.738Z,40.63
2022-10-28T03:26:26.436Z,40.47
2022-10-28T03:28:58.955Z,39.58
2022-10-28T03:31:31.924Z,41.83
2022-10-28T03:34:04.476Z,47.15
2022-10-28T03:36:37.150Z,45.05
2022-10-28T03:39:09.675Z,45.97
2022-10-28T03:41:42.379Z,41.00
2022-10-28T03:44:14.889Z,40.30
2022-10-28T03:46:47.589Z,41.95
2022-10-28T03:49:20.130Z,43.63
2022-10-28T03:51:52.877Z,37.33
2022-10-28T03:54:25.399Z,45.65
2022-10-28T03:56:58.104Z,39.50
2022-10-28T03:59:30.633Z,40.83
2022-10-28T04:02:03.760Z,39.67
2022-10-28T04:04:36.998Z,40.03
2022-10-28T04:07:09.699Z,38.85
2022-10-28T04:09:42.836Z,42.72
2022-10-28T04:12:15.706Z,38.60
2022-10-28T04:14:48.221Z,38.38
2022-10-28T04:17:20.889Z,38.92
2022-10-28T04:19:53.569Z,42.92
2022-10-28T04:22:26.466Z,39.08
2022-10-28T04:24:59.055Z,41.72
2022-10-28T04:27:31.803Z,39.80
2022-10-28T04:30:05.480Z,39.97
2022-10-28T04:32:38.260Z,42.10
2022-10-28T04:35:11.947Z,40.53
2022-10-28T04:37:44.628Z,33.00
2022-10-28T04:40:17.315Z,43.08
2022-10-28T04:42:50.414Z,35.25
2022-10-28T04:45:23.046Z,40.88
2022-10-28T04:47:59.685Z,35.70
2022-10-28T04:50:32.317Z,39.88
2022-10-28T04:53:05.092Z,45.15
2022-10-28T04:55:37.582Z,42.47
2022-10-28T04:58:16.171Z,38.58
2022-10-28T05:00:56.347Z,39.72
2022-10-28T05:03:33.008Z,42.30
2022-10-28T05:08:52.042Z,36.90
2022-10-28T05:11:24.672Z,36.88
2022-10-28T05:14:00.028Z,39.88
2022-10-28T05:16:32.824Z,49.90
2022-10-28T05:19:05.716Z,38.88
2022-10-28T05:21:38.182Z,36.85
2022-10-28T05:24:11.207Z,43.28
2022-10-28T05:26:43.911Z,36.88
2022-10-28T05:29:18.493Z,42.92
2022-10-28T05:31:51.182Z,47.50
2022-10-28T05:34:24.022Z,42.60
2022-10-28T05:36:56.499Z,43.90
2022-10-28T05:39:29.202Z,45.90
2022-10-28T05:42:01.769Z,50.92
2022-10-28T05:44:34.489Z,46.63
2022-10-28T05:47:06.990Z,44.90
2022-10-28T05:49:39.671Z,58.05
2022-10-28T05:52:12.157Z,49.05
2022-10-28T05:54:44.803Z,49.85
2022-10-28T05:57:17.313Z,47.90
2022-10-28T05:59:50.416Z,47.45
2022-10-28T06:02:22.980Z,53.33
2022-10-28T06:04:55.833Z,52.58
2022-10-28T06:07:30.276Z,48.58
2022-10-28T06:10:04.608Z,56.08
2022-10-28T06:12:35.707Z,54.53
2022-10-28T06:15:08.825Z,58.55
2022-10-28T06:17:41.329Z,58.78
2022-10-28T06:20:14.660Z,56.40
2022-10-28T06:22:51.879Z,57.50
2022-10-28T06:25:25.861Z,58.08
2022-10-28T06:28:01.142Z,56.38
2022-10-28T06:30:34.495Z,58.40
2022-10-28T06:33:07.090Z,51.50
2022-10-28T06:35:39.772Z,47.65
2022-10-28T06:38:12.281Z,53.45
2022-10-28T06:40:47.867Z,50.47
2022-10-28T06:43:22.715Z,54.17
2022-10-28T06:45:59.433Z,56.35
2022-10-28T06:48:33.521Z,54.20
2022-10-28T06:51:06.511Z,53.42
2022-10-28T06:53:39.029Z,52.70
2022-10-28T06:56:11.799Z,51.90
2022-10-28T06:58:44.654Z,52.40
2022-10-28T07:01:18.527Z,61.42
2022-10-28T07:03:51.005Z,52.72
2022-10-28T07:06:23.842Z,58.97
2022-10-28T07:08:56.509Z,68.93
2022-10-28T07:11:29.451Z,63.50
2022-10-28T07:14:02.274Z,60.50
2022-10-28T07:16:35.434Z,61.05
2022-10-28T07:19:08.440Z,70.93
2022-10-28T07:21:41.478Z,67.15
2022-10-28T07:24:14.059Z,60.85
2022-10-28T07:26:52.013Z,62.63
2022-10-28T07:29:26.803Z,62.35
2022-10-28T07:31:59.591Z,54.92
2022-10-28T07:34:32.135Z,62.88
2022-10-28T07:37:06.089Z,61.30
2022-10-28T07:39:38.815Z,61.08
2022-10-28T07:42:11.539Z,61.45
2022-10-28T07:44:44.013Z,60.72
2022-10-28T07:47:17.743Z,60.85
2022-10-28T07:49:50.231Z,56.33
2022-10-28T07:52:25.537Z,57.67
2022-10-28T07:54:58.062Z,53.97
2022-10-28T07:57:30.927Z,55.67
2022-10-28T08:00:05.169Z,55.33
2022-10-28T08:02:38.257Z,55.58
2022-10-28T08:05:10.791Z,55.63
2022-10-28T08:07:43.547Z,57.83
2022-10-28T08:10:16.089Z,53.22
2022-10-28T08:12:48.860Z,50.03
2022-10-28T08:15:23.800Z,55.65
2022-10-28T08:17:57.271Z,50.72
2022-10-28T08:20:29.970Z,54.00
2022-10-28T08:23:04.104Z,55.38
2022-10-28T08:25:39.259Z,56.38
2022-10-28T08:28:11.953Z,54.30
2022-10-28T08:30:57.255Z,56.17
2022-10-28T08:33:40.893Z,52.08
2022-10-28T08:36:16.020Z,59.42
2022-10-28T08:38:48.821Z,58.95
2022-10-28T08:41:39.795Z,61.13
2022-10-28T08:44:46.587Z,56.63
2022-10-28T08:47:35.486Z,58.53
2022-10-28T08:50:16.135Z,59.97
2022-10-28T08:53:00.246Z,54.28
2022-10-28T08:55:42.305Z,57.42
2022-10-28T08:58:36.360Z,52.80
2022-10-28T09:01:17.220Z,55.75
2022-10-28T09:03:53.445Z,55.97
2022-10-28T09:06:26.223Z,57.92
2022-10-28T09:08:59.211Z,59.78
2022-10-28T09:12:23.276Z,64.10
2022-10-28T09:15:23.131Z,57.92
2022-10-28T09:18:10.964Z,58.55
2022-10-28T09:21:04.623Z,66.68
2022-10-28T09:23:50.042Z,59.58
2022-10-28T09:26:51.969Z,59.53
2022-10-28T09:32:23.146Z,46.60
2022-10-28T09:35:00.889Z,41.38
2022-10-28T09:37:39.311Z,44.20
2022-10-28T09:40:20.035Z,41.50
2022-10-28T09:43:18.855Z,39.80
2022-10-28T09:45:54.108Z,37.22
2022-10-28T09:48:33.145Z,42.80
2022-10-28T09:51:29.759Z,34.72
2022-10-28T09:54:02.728Z,35.30
2022-10-28T09:56:35.307Z,33.28
2022-10-28T09:59:11.760Z,33.53
2022-10-28T10:01:46.694Z,34.80
2022-10-28T10:04:23.010Z,37.88
2022-10-28T10:07:18.608Z,31.85
2022-10-28T10:10:17.106Z,29.58
2022-10-28T10:12:52.560Z,31.63
2022-10-28T10:15:37.374Z,29.02
2022-10-28T10:18:17.355Z,31.05
2022-10-28T10:21:12.655Z,27.40
2022-10-28T10:27:13.032Z,30.27
2022-10-28T10:33:28.527Z,27.50
2022-10-28T10:36:23.263Z,25.88
2022-10-28T10:39:02.011Z,22.02
2022-10-28T10:41:43.553Z,26.52
2022-10-28T10:44:22.114Z,20.77
2022-10-28T10:47:05.066Z,26.30
2022-10-28T10:50:22.292Z,23.00
2022-10-28T10:53:00.432Z,21.30
2022-10-28T10:55:41.420Z,22.17
2022-10-28T10:58:20.752Z,21.50
2022-10-28T11:00:56.011Z,23.30
2022-10-28T11:03:39.097Z,22.85
2022-10-28T11:06:24.092Z,22.77
2022-10-28T11:09:03.891Z,19.80
2022-10-28T11:11:38.657Z,22.85
2022-10-28T11:14:13.452Z,20.67
2022-10-28T11:16:50.549Z,23.90
2022-10-28T11:19:32.095Z,16.58
2022-10-28T11:22:23.337Z,20.55
2022-10-28T11:25:20.488Z,18.92
2022-10-28T11:28:35.010Z,23.00
2022-10-28T11:31:44.909Z,20.73
2022-10-28T11:35:06.633Z,20.70
2022-10-28T11:38:21.397Z,19.00
2022-10-28T11:41:46.007Z,19.88
2022-10-28T11:45:18.076Z,20.75
2022-10-28T11:48:29.933Z,28.63
2022-10-28T11:51:48.849Z,20.98
2022-10-28T11:54:30.328Z,26.40
2022-10-28T11:57:16.557Z,25.67
2022-10-28T12:00:14.801Z,29.27
2022-10-28T12:03:42.485Z,24.52
2022-10-28T12:06:48.189Z,28.27
2022-10-28T12:09:45.153Z,29.65
2022-10-28T12:12:20.579Z,27.25
2022-10-28T12:15:20.208Z,28.25
2022-10-28T12:18:06.565Z,34.58
2022-10-28T12:21:26.951Z,35.38
2022-10-28T12:24:00.522Z,33.28
2022-10-28T12:26:40.791Z,31.13
2022-10-28T12:29:37.320Z,39.80
2022-10-28T12:32:19.912Z,31.00
2022-10-28T12:39:16.289Z,33.28
2022-10-28T12:42:18.631Z,35.85
2022-10-28T12:44:54.584Z,32.50
2022-10-28T12:48:22.542Z,29.65
2022-10-28T12:51:51.780Z,24.50
2022-10-28T12:54:37.323Z,28.33
2022-10-28T13:00:43.364Z,32.30
2022-10-28T13:03:22.784Z,27.88
2022-10-28T13:06:59.180Z,22.45
2022-10-28T13:10:18.250Z,28.55
2022-10-28T13:13:19.320Z,26.00
2022-10-28T13:16:22.631Z,25.50
2022-10-28T13:19:25.089Z,26.63
2022-10-28T13:22:32.453Z,24.55
2022-10-28T13:25:31.434Z,21.52
2022-10-28T13:28:04.631Z,25.07
2022-10-28T13:30:37.245Z,29.58
2022-10-28T13:33:18.233Z,22.50
2022-10-28T13:35:51.152Z,26.88
2022-10-28T13:38:27.307Z,22.50
2022-10-28T13:40:59.785Z,26.25
2022-10-28T13:43:50.647Z,25.17
2022-10-28T13:47:01.397Z,26.10
2022-10-28T13:49:36.256Z,22.67
2022-10-28T13:52:11.976Z,21.45
2022-10-28T13:55:42.270Z,20.05
2022-10-28T13:58:31.210Z,22.17
2022-10-28T14:01:42.873Z,28.98
2022-10-28T14:04:34.995Z,27.45
2022-10-28T14:07:30.351Z,27.33
2022-10-28T14:10:23.328Z,24.95
2022-10-28T14:12:57.965Z,23.85
2022-10-28T14:15:40.995Z,33.17
2022-10-28T14:18:37.874Z,32.67
2022-10-28T14:21:11.825Z,31.70
2022-10-28T14:23:44.803Z,26.10
2022-10-28T14:26:17.739Z,24.17
2022-10-28T14:28:52.122Z,27.70
2022-10-28T14:31:39.718Z,28.88
2022-10-28T14:34:12.223Z,30.25
2022-10-28T14:37:11.756Z,27.52
2022-10-28T14:40:16.481Z,28.98
2022-10-28T14:43:13.706Z,26.05
2022-10-28T14:46:15.345Z,25.05
2022-10-28T14:48:54.851Z,30.27
2022-10-28T14:51:38.216Z,32.38
2022-10-28T14:54:17.561Z,25.85
2022-10-28T14:56:56.574Z,26.33
2022-10-28T14:59:37.928Z,29.30
2022-10-28T15:02:31.420Z,23.52
2022-10-28T15:05:18.150Z,28.80
2022-10-28T15:07:51.730Z,31.92
2022-10-28T15:10:47.651Z,22.88
2022-10-28T15:13:22.260Z,27.30
2022-10-28T15:15:59.348Z,29.98
2022-10-28T15:18:35.110Z,26.48
2022-10-28T15:21:14.127Z,26.77
2022-10-28T15:24:05.560Z,24.73
2022-10-28T15:26:38.123Z,28.15
2022-10-28T15:29:10.911Z,26.77
2022-10-28T15:32:12.694Z,23.40
2022-10-28T15:38:00.395Z,23.95
2022-10-28T15:40:35.393Z,28.50
2022-10-28T15:43:27.939Z,24.35
2022-10-28T15:46:15.606Z,25.25
2022-10-28T15:48:52.686Z,26.38
2022-10-28T15:51:25.869Z,24.77
2022-10-28T15:54:19.668Z,32.47
2022-10-28T15:57:23.017Z,23.33
2022-10-28T16:00:22.184Z,32.25
2022-10-28T16:03:42.673Z,26.95
2022-10-28T16:06:36.113Z,35.72
2022-10-28T16:09:23.910Z,32.72
2022-10-28T16:12:00.133Z,28.65
2022-10-28T16:14:55.120Z,26.15
2022-10-28T16:17:34.637Z,27.42
2022-10-28T16:20:24.860Z,25.70
2022-10-28T16:23:21.641Z,32.78
2022-10-28T16:26:12.852Z,29.77
2022-10-28T16:29:03.496Z,25.70
2022-10-28T16:31:54.853Z,27.85
2022-10-28T16:34:27.546Z,25.70
2022-10-28T16:37:00.157Z,24.67
2022-10-28T16:39:32.825Z,27.10
2022-10-28T16:42:05.393Z,24.27
2022-10-28T16:44:38.209Z,23.05
2022-10-28T16:47:29.260Z,27.42
2022-10-28T16:50:01.921Z,33.15
2022-10-28T16:52:35.497Z,21.45
2022-10-28T16:55:16.588Z,25.88
2022-10-28T16:57:49.157Z,23.48
2022-10-28T17:00:21.897Z,25.45
2022-10-28T17:02:54.536Z,23.90
2022-10-28T17:05:27.403Z,25.17
2022-10-28T17:08:30.817Z,24.52
2022-10-28T17:11:15.071Z,21.13
2022-10-28T17:13:48.072Z,26.67
2022-10-28T17:16:20.765Z,24.63
2022-10-28T17:18:53.246Z,23.60
2022-10-28T17:21:26.225Z,26.25
2022-10-28T17:23:58.716Z,21.40
2022-10-28T17:26:31.428Z,22.33
2022-10-28T17:29:03.916Z,18.60
2022-10-28T17:31:36.654Z,25.45
2022-10-28T17:34:10.361Z,24.77
2022-10-28T17:36:43.145Z,20.77
2022-10-28T17:39:34.357Z,23.58
2022-10-28T17:42:25.368Z,21.40
2022-10-28T17:44:58.067Z,21.65
2022-10-28T17:47:33.424Z,26.23
2022-10-28T17:50:24.557Z,24.13
2022-10-28T17:52:57.663Z,25.52
2022-10-28T17:55:30.896Z,23.25
2022-10-28T17:58:21.841Z,27.92
2022-10-28T18:00:58.489Z,22.83
2022-10-28T18:03:34.104Z,24.23
2022-10-28T18:06:13.119Z,21.23
2022-10-28T18:08:45.712Z,25.25
2022-10-28T18:11:22.333Z,23.17
2022-10-28T18:13:56.381Z,22.45
2022-10-28T18:16:29.149Z,30.17
2022-10-28T18:19:06.800Z,27.27
2022-10-28T18:21:39.549Z,22.58
2022-10-28T18:24:12.205Z,25.33
2022-10-28T18:27:03.246Z,24.17
2022-10-28T18:29:35.990Z,32.60
2022-10-28T18:32:08.533Z,23.35
2022-10-28T18:34:59.715Z,22.50
2022-10-28T18:37:50.626Z,25.17
2022-10-28T18:40:23.359Z,24.00
2022-10-28T18:42:55.853Z,25.88
2022-10-28T18:45:28.557Z,28.42
2022-10-28T18:48:01.045Z,21.70
2022-10-28T18:50:34.089Z,22.67
2022-10-28T18:53:26.011Z,27.20
2022-10-28T18:56:01.567Z,22.83
2022-10-28T18:58:34.413Z,22.15
2022-10-28T19:01:11.925Z,29.02
2022-10-28T19:03:44.816Z,25.95
2022-10-28T19:06:18.654Z,23.70
2022-10-28T19:08:53.089Z,21.77
2022-10-28T19:11:30.259Z,23.92
2022-10-28T19:14:05.608Z,35.90
2022-10-28T19:16:56.614Z,23.45
2022-10-28T19:19:49.160Z,25.05
2022-10-28T19:22:21.919Z,21.88
2022-10-28T19:24:57.053Z,26.55
2022-10-28T19:27:29.778Z,24.48
2022-10-28T19:30:06.472Z,28.30
2022-10-28T19:32:41.964Z,26.33
2022-10-28T19:35:14.559Z,24.88
2022-10-28T19:37:47.257Z,21.90
2022-10-28T19:40:38.294Z,25.95
2022-10-28T19:43:11.082Z,22.48
2022-10-28T19:45:43.590Z,25.27
2022-10-28T19:48:19.277Z,24.90
2022-10-28T19:51:15.128Z,24.45
2022-10-28T19:53:56.258Z,24.73
2022-10-28T19:56:48.152Z,24.63
2022-10-28T19:59:21.393Z,30.05
2022-10-28T20:01:56.915Z,22.35
2022-10-28T20:04:29.639Z,22.95
2022-10-28T20:07:02.189Z,26.95
2022-10-28T20:09:43.682Z,22.77
2022-10-28T20:12:17.884Z,26.50
2022-10-28T20:15:08.872Z,25.42
2022-10-28T20:17:41.846Z,25.70
2022-10-28T20:20:35.017Z,25.38
2022-10-28T20:23:10.295Z,23.13
2022-10-28T20:26:02.704Z,24.15
2022-10-28T20:28:36.188Z,21.50
2022-10-28T20:31:29.152Z,22.27
2022-10-28T20:34:04.648Z,21.50
2022-10-28T20:36:44.938Z,25.00
2022-10-28T20:39:20.929Z,21.52
2022-10-28T20:41:53.484Z,30.23
2022-10-28T20:44:26.400Z,25.17
2022-10-28T20:46:58.932Z,24.25
2022-10-28T20:49:31.858Z,20.40
2022-10-28T20:52:04.503Z,22.20
2022-10-28T20:54:56.896Z,28.02
2022-10-28T20:57:48.121Z,22.25
2022-10-28T21:00:39.012Z,25.50
2022-10-28T21:03:18.365Z,20.95
2022-10-28T21:05:50.983Z,22.77
2022-10-28T21:08:42.855Z,30.50
2022-10-28T21:11:19.165Z,22.17
2022-10-28T21:13:54.423Z,29.48
2022-10-28T21:16:28.188Z,26.98
2022-10-28T21:19:00.882Z,23.98
2022-10-28T21:21:33.697Z,23.65
2022-10-28T21:24:07.764Z,27.65
2022-10-28T21:26:40.468Z,31.95
2022-10-28T21:29:12.937Z,21.08
2022-10-28T21:31:45.624Z,25.33
2022-10-28T21:34:18.181Z,29.55
2022-10-28T21:36:50.867Z,21.63
2022-10-28T21:39:23.650Z,30.15
2022-10-28T21:41:56.364Z,23.80
2022-10-28T21:44:28.841Z,29.23
2022-10-28T21:50:12.013Z,28.42
2022-10-28T21:52:44.776Z,28.67
2022-10-28T21:55:26.674Z,25.75
2022-10-28T21:57:59.632Z,29.33
2022-10-28T22:00:32.202Z,29.65
2022-10-28T22:03:05.067Z,28.02
2022-10-28T22:05:37.748Z,29.10
2022-10-28T22:08:10.475Z,28.40
2022-10-28T22:10:42.990Z,25.27
2022-10-28T22:13:15.774Z,23.25
2022-10-28T22:15:57.390Z,24.77
2022-10-28T22:18:32.019Z,31.20
2022-10-28T22:21:13.274Z,27.52
2022-10-28T22:23:46.705Z,26.27
2022-10-28T22:26:21.775Z,22.42
2022-10-28T22:28:55.058Z,28.80
2022-10-28T22:31:31.508Z,30.52
2022-10-28T22:34:05.537Z,23.05
2022-10-28T22:36:38.135Z,29.88
2022-10-28T22:39:10.843Z,33.67
2022-10-28T22:41:43.363Z,26.48
2022-10-28T22:44:16.169Z,27.60
2022-10-28T22:46:48.838Z,29.25
2022-10-28T22:49:24.400Z,28.63
2022-10-28T22:51:56.900Z,26.33
2022-10-28T22:54:47.746Z,35.85
2022-10-28T22:57:20.500Z,27.95
2022-10-28T22:59:52.979Z,28.02
2022-10-28T23:02:25.809Z,21.98
2022-10-28T23:04:58.384Z,28.05
2022-10-28T23:07:31.505Z,26.48
2022-10-28T23:10:06.513Z,29.23
2022-10-28T23:12:59.285Z,26.02
2022-10-28T23:15:50.089Z,29.77
2022-10-28T23:18:27.609Z,31.55
2022-10-28T23:21:24.452Z,27.83
2022-10-28T23:23:59.597Z,30.17
2022-10-28T23:26:32.211Z,25.55
2022-10-28T23:29:05.000Z,27.10
2022-10-28T23:31:37.488Z,26.08
2022-10-28T23:34:10.259Z,22.20
2022-10-28T23:36:42.797Z,29.15
2022-10-28T23:39:15.531Z,24.88
2022-10-28T23:41:48.309Z,31.48
2022-10-28T23:44:21.522Z,24.48
2022-10-28T23:46:53.997Z,22.83
2022-10-28T23:49:26.710Z,26.30
2022-10-28T23:51:59.186Z,32.72
2022-10-28T23:54:31.933Z,30.67
2022-10-28T23:57:04.573Z,23.45
2022-10-28T23:59:37.307Z,28.00
